Bay City, TX

5:01 PM CDT on July 30, 2016 (GMT -0500)
Oak Creek 2 | | Change Station

Elev 62 ft 29.04 °N, 95.89 °W | Updated 13 seconds ago

Scattered Clouds
Scattered Clouds
93.4 °F
Feels Like 105 °F
N
2.0
Wind Variable Wind from South
Gusts 4.9 mph

Today
High -- | Low -- °F
--% Chance of Precip.
Yesterday
High -- | Low -- °F
Precip. -- in
Pressure 29.98 in
Visibility 10.0 miles
Clouds Scattered Clouds 3400 ft
Heat Index 105 °F
Dew Point 75 °F
Humidity 55%
Rainfall 0.00 in
Snow Depth Not available.
6:43 AM 8:16 PM
Waning Crescent, 11% visible
METAR KBYY 302155Z AUTO 19011KT 10SM SCT034 33/23 A2998 RMK AO2 T03400242
Pressure 29.98 in
Visibility 10.0 miles
Clouds Scattered Clouds 3400 ft
Heat Index 105 °F
Dew Point 75 °F
Humidity 55%
Rainfall 0.00 in
Snow Depth Not available.
6:43 AM 8:16 PM
Waning Crescent, 11% visible
METAR KBYY 302155Z AUTO 19011KT 10SM SCT034 33/23 A2998 RMK AO2 T03400242

10-Day Weather Forecast

Almanac

Astronomy

Jul. 30, 2016 Rise Set
Actual Time
Civil Twilight
Nautical Twilight
Astronomical Twilight
Moon
Length of Visible Light
Length of Day
Tomorrow will be .
, % of the Moon is Illuminated

Today's Extremes

State Highs State Lows

Community

WunderPhotos

Upload Photos

1,928,659 photos uploaded!

WunderBlog® & News

Nearby

Air Quality

  Air Quality AQ Index Pollutant
Not available.

Snow Depth

Station Depth Elevation

Earthquake Activity

City Distance Mag. Time & Date
Minimum magnitude displayed is 2.5.

Coastal Water Temperatures

Place Temperature

Stations

Nearby Weather Stations

Station Location Temp. Windchill Dew Point Humidity Wind Precip. Elev Updated Type
                   

Watches & Warnings

There are currently no watches in effect.